Time;durP1;ratioP1;P1;durP2;ratioP2;P2;SDS_P1;SDS_P2;PMS_P1;PMS_P2;Temp;Humidity;BMP_temperature;BMP_pressure;BME280_temperature;BME280_humidity;BME280_pressure;Samples;Min_cycle;Max_cycle;Signal;HPM_P1;HPM_P2
2022/01/07 00:01:18;;;;;;;14.37;4.37;;;0.70;99.90;;;;;;4975988;28;20192;-91
2022/01/07 00:03:45;;;;;;;20.13;4.63;;;0.70;99.90;;;;;;4975660;28;20208;-91
2022/01/07 00:06:11;;;;;;;14.67;4.90;;;0.60;99.90;;;;;;4975471;28;20184;-92
2022/01/07 00:08:37;;;;;;;11.93;4.13;;;0.70;99.90;;;;;;4975417;28;20207;-91
2022/01/07 00:11:03;;;;;;;15.87;4.03;;;0.70;99.90;;;;;;4975444;28;20185;-92
2022/01/07 00:13:29;;;;;;;11.33;3.90;;;0.70;99.90;;;;;;4975376;28;20221;-92
2022/01/07 00:15:55;;;;;;;16.67;4.70;;;0.70;99.90;;;;;;4975369;28;20700;-92
2022/01/07 00:18:22;;;;;;;18.73;4.37;;;0.70;99.90;;;;;;4975165;28;20248;-92
2022/01/07 00:20:48;;;;;;;12.80;3.77;;;0.60;99.90;;;;;;4974996;28;20254;-92
2022/01/07 00:23:13;;;;;;;17.40;4.90;;;0.70;99.90;;;;;;4975144;28;20220;-90
2022/01/07 00:25:39;;;;;;;11.40;3.93;;;0.70;99.90;;;;;;4975153;28;20267;-92
2022/01/07 00:28:05;;;;;;;12.47;4.03;;;0.60;99.90;;;;;;4974575;28;20664;-93
2022/01/07 00:30:33;;;;;;;14.73;4.03;;;0.60;99.90;;;;;;4974987;28;20188;-91
2022/01/07 00:33:00;;;;;;;12.63;3.87;;;0.50;99.90;;;;;;4974880;28;20550;-92
2022/01/07 00:35:25;;;;;;;15.43;3.83;;;0.50;99.90;;;;;;4974935;28;20304;-93
2022/01/07 00:37:51;;;;;;;11.87;3.70;;;0.50;99.90;;;;;;4974902;28;20216;-92
2022/01/07 00:40:22;;;;;;;11.37;3.77;;;0.40;99.90;;;;;;4974964;28;20177;-91
2022/01/07 00:42:51;;;;;;;13.70;4.07;;;0.50;99.90;;;;;;4975192;28;20707;-92
2022/01/07 00:45:19;;;;;;;17.37;4.43;;;0.50;99.90;;;;;;4975497;28;20239;-92
2022/01/07 00:47:46;;;;;;;12.93;3.70;;;0.40;99.90;;;;;;4975805;28;20275;-89
2022/01/07 00:50:16;;;;;;;14.70;3.80;;;0.40;99.90;;;;;;4977023;28;20629;-93
2022/01/07 00:52:42;;;;;;;12.50;4.03;;;0.40;99.90;;;;;;4975353;28;20177;-92
2022/01/07 00:55:09;;;;;;;14.63;4.73;;;0.40;99.90;;;;;;4974904;28;20175;-93
2022/01/07 00:57:36;;;;;;;12.30;3.87;;;0.40;99.90;;;;;;4974063;28;20259;-92
2022/01/07 01:00:06;;;;;;;12.13;4.40;;;0.40;99.90;;;;;;4974799;28;20512;-91
2022/01/07 01:02:32;;;;;;;19.30;4.80;;;0.30;99.90;;;;;;4974558;28;20187;-92
2022/01/07 01:04:58;;;;;;;13.77;4.20;;;0.40;99.90;;;;;;4974740;28;20173;-91
2022/01/07 01:07:24;;;;;;;15.93;4.70;;;0.40;99.90;;;;;;4974684;28;20208;-91
2022/01/07 01:09:49;;;;;;;12.93;4.20;;;0.40;99.90;;;;;;4974319;28;20176;-92
2022/01/07 01:12:15;;;;;;;12.20;4.10;;;0.40;99.90;;;;;;4974544;28;20629;-91
2022/01/07 01:14:41;;;;;;;12.70;3.90;;;0.40;99.90;;;;;;4974707;28;20574;-92
2022/01/07 01:17:08;;;;;;;12.67;4.27;;;0.40;99.90;;;;;;4974364;28;20686;-93
2022/01/07 01:19:34;;;;;;;23.77;5.57;;;0.40;99.90;;;;;;4974591;28;20621;-92
2022/01/07 01:22:00;;;;;;;14.70;4.30;;;0.50;99.90;;;;;;4974644;28;20248;-92
2022/01/07 01:24:26;;;;;;;17.37;4.70;;;0.50;99.90;;;;;;4974431;28;20180;-92
2022/01/07 01:26:52;;;;;;;13.63;4.40;;;0.50;99.90;;;;;;4974437;28;20282;-91
2022/01/07 01:29:20;;;;;;;11.57;4.73;;;0.50;99.90;;;;;;4974328;28;20173;-92
2022/01/07 01:31:46;;;;;;;14.03;4.53;;;0.40;99.90;;;;;;4974242;28;20223;-91
2022/01/07 01:34:13;;;;;;;11.17;3.83;;;0.40;99.90;;;;;;4977964;28;20208;-93
2022/01/07 01:36:39;;;;;;;14.80;4.87;;;0.40;99.90;;;;;;4978360;28;20200;-92
2022/01/07 01:39:05;;;;;;;14.57;4.80;;;0.40;99.90;;;;;;4978431;28;20228;-91
2022/01/07 01:41:32;;;;;;;15.23;4.30;;;0.40;99.90;;;;;;4978289;28;20570;-92
2022/01/07 01:43:58;;;;;;;15.43;4.37;;;0.40;99.90;;;;;;4978033;28;20177;-91
2022/01/07 01:46:24;;;;;;;16.10;4.87;;;0.40;99.90;;;;;;4977891;28;20552;-91
2022/01/07 01:48:51;;;;;;;14.13;4.47;;;0.40;99.90;;;;;;4978048;28;20184;-92
2022/01/07 01:51:17;;;;;;;21.10;5.03;;;0.40;99.90;;;;;;4978521;28;20190;-91
2022/01/07 01:53:44;;;;;;;10.67;4.10;;;0.40;99.90;;;;;;4978077;28;20200;-92
2022/01/07 01:56:10;;;;;;;13.70;4.47;;;0.40;99.90;;;;;;4978165;28;20181;-93
2022/01/07 01:58:36;;;;;;;15.47;4.83;;;0.50;99.90;;;;;;4979525;28;20281;-92
2022/01/07 02:01:03;;;;;;;17.50;3.93;;;0.50;99.90;;;;;;4977996;28;20163;-91
2022/01/07 02:03:29;;;;;;;15.37;4.77;;;0.40;99.90;;;;;;4977466;28;20175;-91
2022/01/07 02:05:56;;;;;;;12.67;4.00;;;0.50;99.90;;;;;;4977893;28;20241;-91
2022/01/07 02:08:22;;;;;;;10.87;4.10;;;0.40;99.90;;;;;;4977508;28;20207;-90
2022/01/07 02:10:49;;;;;;;15.90;4.43;;;0.40;99.90;;;;;;4977118;28;20176;-94
2022/01/07 02:13:18;;;;;;;9.57;3.90;;;0.40;99.90;;;;;;4977552;28;20201;-91
2022/01/07 02:15:45;;;;;;;14.47;3.87;;;0.40;99.90;;;;;;4977384;28;20226;-92
2022/01/07 02:18:11;;;;;;;11.87;4.00;;;0.40;99.90;;;;;;4977392;28;20197;-90
2022/01/07 02:20:37;;;;;;;16.83;4.13;;;0.40;99.90;;;;;;4977308;28;20188;-92
2022/01/07 02:23:03;;;;;;;10.93;4.30;;;0.40;99.90;;;;;;5383826;23;20231;-95
2022/01/07 02:25:29;;;;;;;15.63;4.13;;;0.50;99.90;;;;;;4995216;28;20225;-94
2022/01/07 02:27:55;;;;;;;13.37;4.63;;;0.50;99.90;;;;;;4997367;28;20610;-95
2022/01/07 02:30:28;;;;;;;17.77;4.70;;;0.50;99.90;;;;;;4988520;28;20645;-94
2022/01/07 02:32:55;;;;;;;13.37;4.30;;;0.50;99.90;;;;;;4989955;28;20294;-95
2022/01/07 02:35:28;;;;;;;13.80;4.33;;;0.50;99.90;;;;;;4997738;28;20618;-95
2022/01/07 02:37:55;;;;;;;16.03;4.43;;;0.60;99.90;;;;;;4996936;28;20267;-94
2022/01/07 02:40:21;;;;;;;16.30;4.27;;;0.60;99.90;;;;;;4997473;28;20222;-95
2022/01/07 02:42:47;;;;;;;15.17;4.47;;;0.60;99.90;;;;;;4997420;28;20188;-93
2022/01/07 02:45:14;;;;;;;17.20;4.10;;;0.70;99.90;;;;;;4996924;28;20191;-93
2022/01/07 02:47:54;;;;;;;19.63;4.53;;;0.70;99.90;;;;;;4997552;28;20183;-95
2022/01/07 02:50:27;;;;;;;14.67;5.17;;;0.60;99.90;;;;;;4996730;28;20227;-94
2022/01/07 02:52:54;;;;;;;14.90;5.07;;;0.60;99.90;;;;;;4997227;28;20196;-94
2022/01/07 02:55:21;;;;;;;17.60;4.60;;;0.70;99.90;;;;;;4997628;28;20184;-94
2022/01/07 02:57:47;;;;;;;19.73;4.83;;;0.70;99.90;;;;;;4996824;28;20185;-94
2022/01/07 03:00:14;;;;;;;14.97;4.23;;;0.70;99.90;;;;;;4997027;28;20238;-95
2022/01/07 03:02:41;;;;;;;15.43;5.17;;;0.70;99.90;;;;;;4997065;28;20176;-94
2022/01/07 03:05:07;;;;;;;14.43;5.27;;;0.70;99.90;;;;;;4997256;28;20517;-94
2022/01/07 03:07:34;;;;;;;17.00;4.27;;;0.70;99.90;;;;;;4996106;28;20264;-94
2022/01/07 03:10:00;;;;;;;14.43;4.67;;;0.80;99.90;;;;;;4996699;28;20558;-94
2022/01/07 03:12:25;;;;;;;15.17;4.50;;;0.80;99.90;;;;;;4996857;28;20195;-95
2022/01/07 03:14:51;;;;;;;12.10;4.17;;;0.90;99.90;;;;;;4996546;28;20223;-94
2022/01/07 03:17:17;;;;;;;18.47;4.80;;;0.90;99.90;;;;;;4996670;28;20249;-94
2022/01/07 03:19:43;;;;;;;12.30;4.23;;;0.90;99.90;;;;;;4996425;28;20188;-94
2022/01/07 03:22:09;;;;;;;16.57;3.90;;;1.00;99.90;;;;;;4996945;28;20180;-93
2022/01/07 03:24:35;;;;;;;18.67;4.13;;;0.90;99.90;;;;;;4996733;28;20235;-95
2022/01/07 03:27:00;;;;;;;13.27;4.07;;;0.90;99.90;;;;;;4996610;28;20187;-94
2022/01/07 03:29:26;;;;;;;11.97;4.53;;;0.90;99.90;;;;;;4996474;28;20216;-94
2022/01/07 03:31:52;;;;;;;16.40;4.63;;;1.00;99.90;;;;;;4996863;28;20187;-95
2022/01/07 03:34:18;;;;;;;16.00;5.40;;;1.00;99.90;;;;;;4995972;28;20274;-93
2022/01/07 03:36:43;;;;;;;12.63;4.37;;;1.00;99.90;;;;;;4996183;28;20606;-95
2022/01/07 03:39:09;;;;;;;14.93;4.53;;;1.00;99.90;;;;;;4996561;28;20204;-94
2022/01/07 03:41:35;;;;;;;13.77;4.33;;;1.00;99.90;;;;;;4996175;28;20214;-94
2022/01/07 03:44:01;;;;;;;14.73;4.83;;;1.00;99.90;;;;;;4995926;28;20191;-95
2022/01/07 03:46:27;;;;;;;13.63;4.07;;;1.00;99.90;;;;;;4996318;28;20185;-93
2022/01/07 03:48:53;;;;;;;18.57;4.70;;;1.00;99.90;;;;;;4996057;28;20172;-94
2022/01/07 03:51:18;;;;;;;13.83;4.67;;;1.00;99.90;;;;;;4996268;28;20176;-94
2022/01/07 03:53:44;;;;;;;13.57;4.50;;;1.00;99.90;;;;;;4995977;28;20213;-93
2022/01/07 03:56:17;;;;;;;14.40;4.40;;;1.10;99.90;;;;;;4995378;28;20174;-95
2022/01/07 03:58:43;;;;;;;15.20;4.40;;;1.10;99.90;;;;;;4995972;28;20197;-94
2022/01/07 04:01:09;;;;;;;12.27;4.43;;;1.20;99.90;;;;;;4995386;28;20238;-94
2022/01/07 04:03:35;;;;;;;15.83;4.53;;;1.20;99.90;;;;;;4995277;28;20532;-95
2022/01/07 04:06:02;;;;;;;12.07;3.90;;;1.30;99.90;;;;;;4996151;28;20180;-94
2022/01/07 04:08:28;;;;;;;13.30;3.93;;;1.30;99.90;;;;;;4994600;28;20187;-94
2022/01/07 04:10:54;;;;;;;11.37;3.40;;;1.30;99.90;;;;;;4995578;28;20614;-94
2022/01/07 04:13:20;;;;;;;13.07;3.67;;;1.40;99.90;;;;;;4995383;28;20697;-95
2022/01/07 04:15:45;;;;;;;17.17;3.53;;;1.40;99.90;;;;;;4995077;28;20191;-95
2022/01/07 04:18:11;;;;;;;11.70;3.40;;;1.40;99.90;;;;;;4994905;28;20184;-94
2022/01/07 04:20:37;;;;;;;13.53;4.17;;;1.50;99.90;;;;;;4995495;28;20199;-94
2022/01/07 04:23:05;;;;;;;13.10;4.07;;;1.50;99.90;;;;;;4995026;28;20278;-94
2022/01/07 04:25:32;;;;;;;10.73;3.47;;;1.50;99.90;;;;;;4995711;28;20180;-95
2022/01/07 04:28:00;;;;;;;14.97;4.20;;;1.60;99.90;;;;;;4995257;28;20632;-94
2022/01/07 04:30:29;;;;;;;12.87;3.83;;;1.60;99.90;;;;;;4994839;28;20219;-95
2022/01/07 04:32:56;;;;;;;10.13;3.53;;;1.50;99.90;;;;;;4994977;28;20215;-94
2022/01/07 04:35:23;;;;;;;14.50;4.07;;;1.50;99.90;;;;;;4995368;28;20215;-94
2022/01/07 04:37:49;;;;;;;11.53;4.00;;;1.50;99.90;;;;;;4994714;28;20190;-95
2022/01/07 04:40:16;;;;;;;15.00;3.57;;;1.50;99.90;;;;;;4995033;28;20191;-94
2022/01/07 04:42:43;;;;;;;14.13;3.73;;;1.50;99.90;;;;;;4995006;28;20183;-93
2022/01/07 04:45:11;;;;;;;14.33;3.30;;;1.50;99.90;;;;;;4995044;28;20208;-95
2022/01/07 04:47:38;;;;;;;13.20;3.60;;;1.50;99.90;;;;;;4996134;28;20184;-94
2022/01/07 04:50:07;;;;;;;13.90;4.00;;;1.40;99.90;;;;;;4996437;28;20196;-94
2022/01/07 04:52:33;;;;;;;12.40;3.40;;;1.50;99.90;;;;;;4995320;28;20591;-94
2022/01/07 04:54:59;;;;;;;18.60;4.03;;;1.50;99.90;;;;;;4996031;28;20214;-94
2022/01/07 04:57:25;;;;;;;11.47;3.23;;;1.50;99.90;;;;;;4996022;28;20208;-95
2022/01/07 04:59:51;;;;;;;16.83;4.00;;;1.50;99.90;;;;;;4995848;28;20178;-94
2022/01/07 05:02:19;;;;;;;10.00;3.37;;;1.60;99.90;;;;;;4994786;28;20176;-94
2022/01/07 05:04:45;;;;;;;17.83;4.20;;;1.50;99.90;;;;;;4984880;28;20183;-94
2022/01/07 05:07:11;;;;;;;9.43;3.47;;;1.50;99.90;;;;;;4994024;28;20275;-94
2022/01/07 05:09:37;;;;;;;11.23;3.80;;;1.60;99.90;;;;;;4995065;28;20220;-93
2022/01/07 05:12:03;;;;;;;12.97;3.67;;;1.60;99.90;;;;;;4994725;28;20182;-94
2022/01/07 05:14:29;;;;;;;14.77;3.97;;;1.70;99.90;;;;;;4995706;28;20218;-94
2022/01/07 05:16:56;;;;;;;14.70;3.43;;;1.70;99.90;;;;;;4994576;28;20190;-93
2022/01/07 05:19:22;;;;;;;14.17;3.87;;;1.80;99.90;;;;;;4994553;28;20261;-94
2022/01/07 05:21:48;;;;;;;10.90;3.73;;;1.80;99.90;;;;;;4994721;28;20208;-94
2022/01/07 05:24:14;;;;;;;13.80;3.87;;;1.80;99.90;;;;;;4994762;28;20239;-94
2022/01/07 05:26:40;;;;;;;14.33;3.80;;;1.80;99.90;;;;;;4994796;28;20193;-93
2022/01/07 05:29:05;;;;;;;19.23;3.83;;;1.90;99.90;;;;;;4994840;28;20179;-95
2022/01/07 05:31:32;;;;;;;9.17;3.80;;;2.00;99.90;;;;;;4994748;28;20180;-94
2022/01/07 05:33:57;;;;;;;12.07;4.00;;;2.00;99.90;;;;;;4994864;28;20211;-94
2022/01/07 05:36:23;;;;;;;13.47;4.00;;;2.10;99.90;;;;;;4994928;28;20658;-93
2022/01/07 05:38:50;;;;;;;11.80;3.83;;;2.00;99.90;;;;;;4994522;28;20187;-95
2022/01/07 05:41:16;;;;;;;11.67;4.43;;;2.00;99.90;;;;;;4994325;28;20511;-94
2022/01/07 05:43:42;;;;;;;12.63;4.00;;;2.00;99.90;;;;;;4994539;28;20246;-94
2022/01/07 05:46:10;;;;;;;12.47;3.87;;;2.10;99.90;;;;;;4994579;28;20615;-94
2022/01/07 05:48:36;;;;;;;10.90;3.60;;;2.10;99.90;;;;;;4994104;28;20184;-93
2022/01/07 05:51:03;;;;;;;10.80;3.53;;;2.10;99.90;;;;;;4994052;28;20176;-94
2022/01/07 05:53:29;;;;;;;5.40;2.70;;;2.10;99.90;;;;;;4993983;28;20665;-93
2022/01/07 05:55:54;;;;;;;10.37;3.43;;;2.10;99.90;;;;;;4994222;28;20184;-95
2022/01/07 05:58:20;;;;;;;12.53;3.63;;;2.10;99.90;;;;;;4994158;28;20187;-94
2022/01/07 06:00:46;;;;;;;9.70;3.40;;;2.10;99.90;;;;;;4994172;28;20709;-94
2022/01/07 06:03:12;;;;;;;9.40;4.27;;;2.20;99.90;;;;;;4994343;28;20658;-94
2022/01/07 06:05:37;;;;;;;8.73;3.33;;;2.20;99.90;;;;;;4994388;28;20190;-94
2022/01/07 06:08:03;;;;;;;7.43;2.90;;;2.10;99.90;;;;;;4994178;28;20224;-94
2022/01/07 06:10:29;;;;;;;10.83;3.63;;;2.20;99.90;;;;;;4994117;28;20610;-93
2022/01/07 06:12:56;;;;;;;14.10;3.53;;;2.20;99.90;;;;;;4993975;28;20197;-94
2022/01/07 06:15:21;;;;;;;14.27;3.03;;;2.20;99.90;;;;;;4994380;28;20194;-94
2022/01/07 06:17:48;;;;;;;15.50;3.40;;;2.20;99.90;;;;;;4994507;28;20542;-94
2022/01/07 06:20:15;;;;;;;8.90;3.67;;;2.20;99.90;;;;;;4997481;28;20525;-94
2022/01/07 06:22:41;;;;;;;9.20;3.83;;;2.20;99.90;;;;;;4998066;28;20183;-92
2022/01/07 06:25:07;;;;;;;8.10;3.30;;;2.20;99.90;;;;;;4997136;28;20254;-93
2022/01/07 06:27:33;;;;;;;8.53;3.23;;;2.20;99.90;;;;;;4997890;28;20214;-93
2022/01/07 06:29:58;;;;;;;12.43;4.20;;;2.20;99.90;;;;;;4997769;28;20602;-93
2022/01/07 06:32:25;;;;;;;9.50;3.83;;;2.20;99.90;;;;;;4997891;28;20187;-91
2022/01/07 06:34:51;;;;;;;8.33;3.67;;;2.20;99.90;;;;;;4997402;28;20222;-93
2022/01/07 06:37:17;;;;;;;8.83;3.40;;;2.20;99.90;;;;;;4997386;28;20188;-93
2022/01/07 06:39:43;;;;;;;10.60;3.37;;;2.20;99.90;;;;;;4998471;28;20190;-93
2022/01/07 06:42:10;;;;;;;10.20;4.27;;;2.20;99.90;;;;;;4998800;28;20183;-94
2022/01/07 06:44:36;;;;;;;8.00;3.70;;;2.20;99.90;;;;;;4998741;28;20183;-94
2022/01/07 06:47:03;;;;;;;6.90;3.20;;;2.20;99.90;;;;;;4995172;28;20187;-92
2022/01/07 06:49:29;;;;;;;10.03;3.37;;;2.30;99.90;;;;;;4997334;28;20191;-94
2022/01/07 06:51:55;;;;;;;13.77;3.73;;;2.20;99.90;;;;;;4998010;28;20206;-94
2022/01/07 06:54:21;;;;;;;9.73;4.03;;;2.20;99.90;;;;;;4995929;28;20215;-94
2022/01/07 06:56:47;;;;;;;8.63;3.77;;;2.30;99.90;;;;;;4997344;28;20226;-94
2022/01/07 06:59:13;;;;;;;12.20;3.93;;;2.20;99.90;;;;;;4998130;28;20198;-94
2022/01/07 07:01:50;;;;;;;10.63;3.90;;;2.30;99.90;;;;;;4997745;28;20176;-96
2022/01/07 07:04:16;;;;;;;13.23;3.83;;;2.30;99.90;;;;;;4998058;28;20171;-94
2022/01/07 07:06:43;;;;;;;10.13;3.87;;;2.30;99.90;;;;;;4997636;28;20207;-95
2022/01/07 07:09:10;;;;;;;10.30;3.97;;;2.30;99.90;;;;;;4990870;28;20211;-93
2022/01/07 07:11:35;;;;;;;8.70;3.40;;;2.30;99.90;;;;;;4996858;28;20187;-94
2022/01/07 07:14:02;;;;;;;9.60;4.03;;;2.30;99.90;;;;;;4995538;28;20300;-92
2022/01/07 07:16:28;;;;;;;13.30;4.40;;;2.30;99.90;;;;;;4997245;28;20278;-96
2022/01/07 07:18:54;;;;;;;11.33;4.80;;;2.30;99.90;;;;;;4997953;28;20183;-92
2022/01/07 07:21:20;;;;;;;10.93;4.50;;;2.20;99.90;;;;;;4998068;28;20181;-94
2022/01/07 07:23:46;;;;;;;12.53;4.67;;;2.20;99.90;;;;;;4994942;28;20227;-96
2022/01/07 07:26:15;;;;;;;14.67;4.90;;;2.20;99.90;;;;;;4997321;28;20194;-92
2022/01/07 07:28:41;;;;;;;12.67;4.90;;;2.20;99.90;;;;;;4996046;28;20267;-93
2022/01/07 07:31:12;;;;;;;10.57;4.80;;;2.10;99.90;;;;;;4996181;28;20210;-94
2022/01/07 07:36:32;;;;;;;10.03;4.70;;;2.20;99.90;;;;;;4997273;28;20187;-96
2022/01/07 07:39:07;;;;;;;9.00;4.77;;;2.20;99.90;;;;;;4997143;28;20205;-94
2022/01/07 07:41:34;;;;;;;16.53;5.50;;;2.10;99.90;;;;;;4997983;28;20557;-95
2022/01/07 07:44:01;;;;;;;12.97;4.90;;;2.10;99.90;;;;;;4996940;28;20241;-95
2022/01/07 07:46:30;;;;;;;10.77;5.00;;;2.10;99.90;;;;;;4996961;28;20218;-93
2022/01/07 07:48:58;;;;;;;12.33;5.20;;;2.10;99.90;;;;;;4998014;28;20184;-93
2022/01/07 07:51:24;;;;;;;13.33;4.87;;;2.10;99.90;;;;;;4997195;28;20262;-94
2022/01/07 07:53:50;;;;;;;12.47;5.40;;;2.10;99.90;;;;;;4998549;28;20239;-92
2022/01/07 07:56:18;;;;;;;11.97;5.00;;;2.10;99.90;;;;;;4997128;28;20176;-92
2022/01/07 07:58:47;;;;;;;14.80;5.17;;;2.00;99.90;;;;;;4996958;28;20219;-95
2022/01/07 08:01:13;;;;;;;9.90;5.20;;;2.00;99.90;;;;;;4996737;28;20183;-94
2022/01/07 08:03:42;;;;;;;10.83;5.60;;;2.00;99.90;;;;;;4996649;28;20189;-93
2022/01/07 08:06:08;;;;;;;14.43;6.13;;;1.90;99.90;;;;;;4996226;28;20181;-93
2022/01/07 08:08:34;;;;;;;16.43;6.20;;;1.90;99.90;;;;;;4996669;28;20194;-93
2022/01/07 08:11:05;;;;;;;12.03;5.93;;;1.90;99.90;;;;;;4996075;28;20264;-93
2022/01/07 08:16:19;;;;;;;9.63;5.73;;;1.90;99.90;;;;;;4998097;28;20166;-95
2022/01/07 08:18:49;;;;;;;13.30;6.17;;;1.90;99.90;;;;;;4997019;28;20188;-93
2022/01/07 08:21:16;;;;;;;12.37;5.63;;;1.80;99.90;;;;;;4992824;28;20188;-93
2022/01/07 08:23:44;;;;;;;9.90;5.30;;;1.80;99.90;;;;;;4996672;28;20568;-93
2022/01/07 08:26:12;;;;;;;11.20;5.87;;;1.80;99.90;;;;;;4996030;28;20202;-92
2022/01/07 08:28:43;;;;;;;14.93;6.50;;;1.80;99.90;;;;;;4996470;28;20185;-94
2022/01/07 08:36:27;;;;;;;15.93;6.53;;;1.70;99.90;;;;;;4997527;28;20175;-93
2022/01/07 08:38:54;;;;;;;14.43;6.80;;;1.70;99.90;;;;;;4996491;28;20193;-93
2022/01/07 08:41:23;;;;;;;13.93;6.50;;;1.70;99.90;;;;;;4995722;28;20169;-94
2022/01/07 08:43:49;;;;;;;15.07;7.40;;;1.60;99.90;;;;;;4996235;28;20216;-94
2022/01/07 08:46:16;;;;;;;15.10;7.57;;;1.60;99.90;;;;;;4996938;28;20180;-93
2022/01/07 08:48:42;;;;;;;12.70;7.40;;;1.50;99.90;;;;;;4994356;28;20187;-94
2022/01/07 08:51:09;;;;;;;16.37;7.87;;;1.50;99.90;;;;;;4996397;28;20176;-95
2022/01/07 08:53:36;;;;;;;18.43;8.60;;;1.50;99.90;;;;;;4995949;28;20216;-94
2022/01/07 08:56:02;;;;;;;16.50;7.33;;;1.60;99.90;;;;;;4995410;28;20186;-94
2022/01/07 08:58:28;;;;;;;13.10;7.77;;;1.60;99.90;;;;;;4996620;28;20177;-96
2022/01/07 09:00:55;;;;;;;12.60;7.23;;;1.60;99.90;;;;;;4993320;28;20188;-95
2022/01/07 09:03:22;;;;;;;19.70;8.47;;;1.70;99.90;;;;;;4992663;28;20191;-93
2022/01/07 09:05:47;;;;;;;13.77;7.40;;;1.60;99.90;;;;;;4992906;28;20186;-95
2022/01/07 09:08:13;;;;;;;11.40;7.53;;;1.60;99.90;;;;;;5002714;28;20685;-95
2022/01/07 09:10:40;;;;;;;17.67;7.33;;;1.70;99.90;;;;;;4995214;28;20215;-94
2022/01/07 09:13:06;;;;;;;14.67;6.60;;;1.70;99.90;;;;;;4995993;28;20207;-95
2022/01/07 09:15:33;;;;;;;11.23;6.27;;;1.70;99.90;;;;;;4995433;28;20214;-94
2022/01/07 09:17:59;;;;;;;14.40;6.07;;;1.70;99.90;;;;;;4995979;28;20175;-95
2022/01/07 09:20:25;;;;;;;11.83;6.07;;;1.70;99.90;;;;;;4996407;28;20198;-95
2022/01/07 09:22:51;;;;;;;14.90;6.63;;;1.80;99.90;;;;;;4994840;28;20230;-94
2022/01/07 09:25:17;;;;;;;9.03;5.97;;;1.80;99.90;;;;;;4995408;28;20606;-95
2022/01/07 09:27:43;;;;;;;12.03;6.03;;;1.80;99.90;;;;;;4995482;28;20595;-94
2022/01/07 09:30:11;;;;;;;11.20;6.23;;;1.80;99.90;;;;;;4995158;28;20191;-94
2022/01/07 09:32:38;;;;;;;8.37;5.40;;;1.90;99.90;;;;;;4995464;28;20605;-95
2022/01/07 09:35:05;;;;;;;9.20;5.13;;;1.90;99.90;;;;;;4995619;28;20247;-96
2022/01/07 09:37:31;;;;;;;7.63;4.93;;;1.90;99.90;;;;;;4994655;28;20199;-94
2022/01/07 09:40:00;;;;;;;9.87;5.97;;;2.00;99.90;;;;;;4995241;28;20187;-94
2022/01/07 09:42:26;;;;;;;9.73;5.60;;;2.00;99.90;;;;;;4995315;28;20187;-94
2022/01/07 09:44:52;;;;;;;9.70;6.00;;;2.00;99.90;;;;;;4994411;28;20187;-93
2022/01/07 09:47:18;;;;;;;9.90;5.00;;;2.00;99.90;;;;;;4991697;28;20213;-94
2022/01/07 09:49:44;;;;;;;8.33;4.80;;;2.10;99.90;;;;;;4994419;28;20184;-94
2022/01/07 09:52:10;;;;;;;7.97;5.23;;;2.10;99.90;;;;;;4994953;28;20195;-92
2022/01/07 09:54:38;;;;;;;10.17;5.47;;;2.10;99.90;;;;;;4997593;28;20215;-95
2022/01/07 09:57:06;;;;;;;12.10;5.50;;;2.20;99.90;;;;;;4998629;28;20183;-93
2022/01/07 09:59:37;;;;;;;8.10;5.27;;;2.20;99.90;;;;;;4999075;28;20234;-93
2022/01/07 10:02:07;;;;;;;7.23;4.50;;;2.20;99.90;;;;;;4998579;28;20191;-92
2022/01/07 10:04:41;;;;;;;9.83;5.07;;;2.20;99.90;;;;;;4998252;28;20180;-93
2022/01/07 10:07:11;;;;;;;8.73;5.10;;;2.20;99.90;;;;;;4998589;28;20234;-95
2022/01/07 10:09:41;;;;;;;10.57;5.27;;;2.30;99.90;;;;;;4997416;28;20183;-92
2022/01/07 10:12:10;;;;;;;11.27;5.40;;;2.30;99.90;;;;;;4996923;28;20230;-93
2022/01/07 10:14:36;;;;;;;6.60;4.80;;;2.30;99.90;;;;;;4999212;28;20217;-94
2022/01/07 10:17:03;;;;;;;8.67;5.00;;;2.30;99.90;;;;;;4998767;28;20271;-94
2022/01/07 10:19:42;;;;;;;9.90;5.17;;;2.40;99.90;;;;;;4997895;28;20194;-94
2022/01/07 10:22:10;;;;;;;10.03;4.97;;;2.40;99.90;;;;;;4999023;28;20510;-94
2022/01/07 10:25:03;;;;;;;7.50;5.13;;;2.40;99.90;;;;;;4997425;28;20235;-93
2022/01/07 10:27:38;;;;;;;9.37;4.70;;;2.50;99.90;;;;;;4998087;28;20271;-94
2022/01/07 10:30:18;;;;;;;7.10;4.90;;;2.40;99.90;;;;;;4999051;28;20552;-93
2022/01/07 10:32:45;;;;;;;6.47;4.20;;;2.40;99.90;;;;;;4998371;28;20186;-94
2022/01/07 10:35:16;;;;;;;9.50;5.00;;;2.40;99.90;;;;;;4997968;28;20195;-93
2022/01/07 10:37:59;;;;;;;8.93;4.90;;;2.40;99.90;;;;;;4997972;28;20255;-93
2022/01/07 10:40:53;;;;;;;7.33;4.63;;;2.40;99.90;;;;;;4998139;28;20191;-93
2022/01/07 10:43:29;;;;;;;8.13;5.20;;;2.40;99.90;;;;;;4994757;28;20203;-94
2022/01/07 10:45:57;;;;;;;7.33;5.00;;;2.50;99.90;;;;;;4997795;28;20212;-92
2022/01/07 10:48:35;;;;;;;8.53;4.57;;;2.50;99.90;;;;;;4997710;28;20183;-92
2022/01/07 10:51:15;;;;;;;7.70;5.00;;;2.60;99.90;;;;;;4997363;28;20187;-93
2022/01/07 10:53:46;;;;;;;7.43;5.00;;;2.50;99.90;;;;;;4997036;28;20229;-92
2022/01/07 10:56:15;;;;;;;9.97;5.00;;;2.60;99.90;;;;;;4997735;28;20187;-91
2022/01/07 10:58:51;;;;;;;8.37;5.10;;;2.60;99.90;;;;;;4997653;28;20186;-92
2022/01/07 11:01:19;;;;;;;12.77;5.57;;;2.60;99.90;;;;;;4996521;28;20255;-92
2022/01/07 11:03:54;;;;;;;9.63;5.00;;;2.70;99.90;;;;;;4997396;28;20614;-92
2022/01/07 11:06:21;;;;;;;9.20;4.90;;;2.60;99.90;;;;;;4995988;28;20179;-90
2022/01/07 11:08:53;;;;;;;11.10;5.50;;;2.70;99.90;;;;;;4996605;28;20186;-92
2022/01/07 11:11:21;;;;;;;7.43;5.37;;;2.70;99.90;;;;;;4996706;28;20175;-91
2022/01/07 11:13:49;;;;;;;9.60;5.63;;;2.80;99.90;;;;;;4996491;28;20203;-91
2022/01/07 11:16:18;;;;;;;9.37;4.97;;;2.80;99.90;;;;;;4996755;28;20171;-91
2022/01/07 11:18:46;;;;;;;8.60;5.60;;;2.80;99.90;;;;;;4996996;28;20180;-90
2022/01/07 11:21:16;;;;;;;8.70;5.23;;;2.90;99.90;;;;;;4996951;28;20186;-91
2022/01/07 11:23:43;;;;;;;13.83;6.20;;;2.90;99.90;;;;;;4996650;28;20351;-90
2022/01/07 11:26:11;;;;;;;9.07;5.20;;;2.90;99.90;;;;;;4996608;28;20180;-89
2022/01/07 11:28:57;;;;;;;8.83;5.17;;;3.00;99.90;;;;;;4996976;28;20176;-90
2022/01/07 11:31:25;;;;;;;6.30;4.50;;;3.00;99.90;;;;;;4996810;28;20207;-89
2022/01/07 11:34:19;;;;;;;8.80;4.60;;;2.90;99.90;;;;;;4997338;28;20662;-90
2022/01/07 11:36:47;;;;;;;9.17;5.10;;;2.90;99.90;;;;;;4996536;28;20172;-89
2022/01/07 11:39:13;;;;;;;10.83;4.87;;;2.90;99.90;;;;;;4996277;28;20187;-91
2022/01/07 11:41:56;;;;;;;10.87;5.60;;;2.90;99.90;;;;;;4996011;28;20180;-90
2022/01/07 11:44:28;;;;;;;10.20;5.27;;;2.90;99.90;;;;;;4996690;28;20168;-89
2022/01/07 11:47:13;;;;;;;10.87;5.20;;;2.90;99.90;;;;;;4996127;28;20625;-90
2022/01/07 11:49:42;;;;;;;9.53;5.07;;;2.90;99.90;;;;;;4996708;28;20179;-91
2022/01/07 11:52:30;;;;;;;8.27;5.00;;;2.90;99.90;;;;;;4996524;28;20180;-93
2022/01/07 11:55:45;;;;;;;7.93;4.90;;;2.90;99.90;;;;;;4996147;28;20274;-89
2022/01/07 11:58:13;;;;;;;10.30;4.93;;;2.80;99.90;;;;;;4987396;28;20407;-90
2022/01/07 12:01:00;;;;;;;8.00;5.50;;;2.90;99.90;;;;;;4996336;28;20180;-90
2022/01/07 12:03:53;;;;;;;10.80;5.60;;;2.80;99.90;;;;;;4996235;28;20180;-91
2022/01/07 12:06:30;;;;;;;9.90;5.37;;;2.80;99.90;;;;;;4996400;28;20179;-91
2022/01/07 12:09:16;;;;;;;9.30;5.53;;;2.80;99.90;;;;;;4994629;28;20187;-92
2022/01/07 12:11:58;;;;;;;8.47;5.73;;;2.80;99.90;;;;;;4996850;28;20183;-91
2022/01/07 12:14:38;;;;;;;8.97;5.80;;;2.80;99.90;;;;;;4996179;28;20226;-91
2022/01/07 12:17:11;;;;;;;11.40;5.80;;;2.80;99.90;;;;;;4995262;28;20279;-91
2022/01/07 12:20:34;;;;;;;10.63;6.07;;;2.80;99.90;;;;;;4995944;28;20180;-90
2022/01/07 12:23:02;;;;;;;8.87;5.60;;;2.90;99.90;;;;;;4921404;29;20208;-91
2022/01/07 12:25:28;;;;;;;9.03;5.63;;;2.80;99.90;;;;;;4964971;28;20212;-91
2022/01/07 12:28:04;;;;;;;11.20;5.70;;;2.80;99.90;;;;;;4992826;28;20187;-91
2022/01/07 12:30:31;;;;;;;14.00;5.73;;;2.80;99.90;;;;;;4993756;28;20243;-92
2022/01/07 12:33:07;;;;;;;12.17;5.47;;;2.90;99.90;;;;;;4992684;28;20235;-90
2022/01/07 12:35:35;;;;;;;9.87;5.50;;;2.90;99.90;;;;;;4992593;28;20198;-91
2022/01/07 12:38:23;;;;;;;11.13;6.17;;;2.90;99.90;;;;;;4994337;28;20190;-90
2022/01/07 12:40:58;;;;;;;8.33;5.03;;;3.00;99.90;;;;;;4991313;28;20189;-91
2022/01/07 12:43:33;;;;;;;7.20;5.17;;;3.00;99.90;;;;;;4992534;28;20263;-91
2022/01/07 12:46:08;;;;;;;7.93;5.37;;;3.00;99.90;;;;;;4994940;28;20223;-91
2022/01/07 12:48:41;;;;;;;7.27;4.33;;;3.00;99.90;;;;;;4995678;28;20167;-90
2022/01/07 12:51:10;;;;;;;8.57;5.20;;;3.10;99.90;;;;;;4995184;28;20253;-92
2022/01/07 12:53:36;;;;;;;8.93;5.20;;;3.10;99.90;;;;;;4995806;28;20211;-91
2022/01/07 12:56:33;;;;;;;7.73;5.40;;;3.10;99.90;;;;;;4994632;28;20204;-91
2022/01/07 12:59:12;;;;;;;8.17;4.80;;;3.10;99.90;;;;;;4994739;28;20187;-92
2022/01/07 13:01:39;;;;;;;7.27;5.30;;;3.10;99.90;;;;;;4995212;28;20176;-91
2022/01/07 13:04:09;;;;;;;6.93;4.77;;;3.10;99.90;;;;;;4995062;28;20179;-90
2022/01/07 13:06:44;;;;;;;9.10;5.30;;;3.10;99.90;;;;;;4993061;28;20184;-91
2022/01/07 13:09:19;;;;;;;10.93;5.97;;;3.00;99.90;;;;;;4993718;28;20226;-94